createdAt,value
2023-03-25T00:01:19.791Z,5.80
2023-03-25T00:03:50.747Z,6.90
2023-03-25T00:06:20.511Z,6.00
2023-03-25T00:08:49.112Z,5.20
2023-03-25T00:11:17.594Z,5.60
2023-03-25T00:13:46.004Z,5.70
2023-03-25T00:16:15.369Z,5.60
2023-03-25T00:18:43.670Z,5.10
2023-03-25T00:21:12.001Z,5.40
2023-03-25T00:23:41.975Z,5.40
2023-03-25T00:26:10.760Z,5.30
2023-03-25T00:28:39.568Z,4.90
2023-03-25T00:31:15.009Z,5.50
2023-03-25T00:33:43.495Z,5.20
2023-03-25T00:36:18.139Z,5.40
2023-03-25T00:38:48.908Z,4.90
2023-03-25T00:41:28.605Z,4.90
2023-03-25T00:43:59.031Z,5.00
2023-03-25T00:46:30.025Z,5.40
2023-03-25T00:48:59.952Z,5.10
2023-03-25T00:51:28.738Z,4.60
2023-03-25T00:54:02.238Z,5.80
2023-03-25T00:56:31.527Z,5.30
2023-03-25T00:58:59.893Z,5.00
2023-03-25T01:01:29.204Z,4.40
2023-03-25T01:04:00.196Z,4.90
2023-03-25T01:06:33.656Z,4.70
2023-03-25T01:09:05.955Z,4.90
2023-03-25T01:11:35.536Z,4.70
2023-03-25T01:14:16.506Z,4.60
2023-03-25T01:16:45.579Z,4.40
2023-03-25T01:19:14.876Z,4.80
2023-03-25T01:21:45.281Z,4.40
2023-03-25T01:24:15.493Z,4.10
2023-03-25T01:26:45.968Z,4.80
2023-03-25T01:29:18.154Z,4.50
2023-03-25T01:31:47.317Z,4.50
2023-03-25T01:34:16.413Z,5.30
2023-03-25T01:36:46.792Z,4.40
2023-03-25T01:39:18.902Z,4.70
2023-03-25T01:41:51.033Z,4.50
2023-03-25T01:44:19.718Z,4.70
2023-03-25T01:46:49.869Z,4.30
2023-03-25T01:49:26.934Z,4.60
2023-03-25T01:51:59.634Z,4.40
2023-03-25T01:54:28.723Z,5.00
2023-03-25T01:56:58.101Z,5.10
2023-03-25T01:59:28.684Z,4.40
2023-03-25T02:02:02.224Z,4.90
2023-03-25T02:04:40.517Z,5.00
2023-03-25T02:07:10.301Z,4.40
2023-03-25T02:09:39.299Z,4.70
2023-03-25T02:12:10.613Z,4.90
2023-03-25T02:14:39.329Z,4.50
2023-03-25T02:17:37.847Z,4.80
2023-03-25T02:20:47.620Z,5.60
2023-03-25T02:23:28.478Z,4.80
2023-03-25T02:26:06.082Z,4.60
2023-03-25T02:28:47.718Z,4.40
2023-03-25T02:31:44.093Z,4.90
2023-03-25T02:34:41.920Z,4.80
2023-03-25T02:37:40.481Z,5.70
2023-03-25T02:40:19.074Z,5.80
2023-03-25T02:42:53.892Z,5.50
2023-03-25T02:45:29.061Z,6.20
2023-03-25T02:50:39.603Z,4.90
2023-03-25T02:53:13.339Z,5.20
2023-03-25T02:55:43.729Z,4.90
2023-03-25T02:58:16.848Z,4.80
2023-03-25T03:00:46.502Z,5.30
2023-03-25T03:03:14.971Z,5.70
2023-03-25T03:05:46.388Z,5.00
2023-03-25T03:08:23.178Z,4.90
2023-03-25T03:11:05.235Z,5.00
2023-03-25T03:13:39.605Z,5.10
2023-03-25T03:16:14.249Z,5.30
2023-03-25T03:18:58.670Z,5.50
2023-03-25T03:21:30.561Z,5.60
2023-03-25T03:24:32.952Z,6.10
2023-03-25T03:27:23.906Z,5.60
2023-03-25T03:30:07.775Z,5.80
2023-03-25T03:32:54.822Z,5.80
2023-03-25T03:35:34.347Z,5.90
2023-03-25T03:38:09.582Z,5.90
2023-03-25T03:40:43.647Z,6.40
2023-03-25T03:43:20.214Z,6.30
2023-03-25T03:45:56.365Z,5.70
2023-03-25T03:48:33.299Z,5.90
2023-03-25T03:51:38.606Z,6.20
2023-03-25T03:54:30.941Z,6.40
2023-03-25T03:57:07.698Z,6.50
2023-03-25T03:59:47.807Z,6.60
2023-03-25T04:02:38.635Z,6.30
2023-03-25T04:05:11.949Z,6.20
2023-03-25T04:08:00.930Z,7.30
2023-03-25T04:10:46.709Z,7.30
2023-03-25T04:13:17.585Z,6.70
2023-03-25T04:15:46.515Z,7.30
2023-03-25T04:18:14.756Z,8.00
2023-03-25T04:20:44.902Z,7.70
2023-03-25T04:23:16.203Z,7.70
2023-03-25T04:25:50.135Z,8.70
2023-03-25T04:28:19.127Z,9.00
2023-03-25T04:30:55.610Z,9.50
2023-03-25T04:33:25.080Z,9.30
2023-03-25T04:35:53.636Z,9.90
2023-03-25T04:38:22.416Z,9.70
2023-03-25T04:40:50.594Z,10.70
2023-03-25T04:43:18.877Z,9.70
2023-03-25T04:45:54.768Z,10.00
2023-03-25T04:48:30.492Z,10.80
2023-03-25T04:50:59.587Z,10.50
2023-03-25T04:53:28.682Z,10.90
2023-03-25T04:55:56.958Z,11.10
2023-03-25T04:58:25.265Z,11.70
2023-03-25T05:00:54.004Z,11.00
2023-03-25T05:03:25.368Z,10.20
2023-03-25T05:05:53.796Z,11.10
2023-03-25T05:08:22.495Z,10.80
2023-03-25T05:10:50.902Z,10.80
2023-03-25T05:13:20.917Z,11.10
2023-03-25T05:15:49.524Z,10.60
2023-03-25T05:18:18.031Z,10.40
2023-03-25T05:20:50.822Z,11.30
2023-03-25T05:23:19.633Z,10.90
2023-03-25T05:25:50.770Z,9.40
2023-03-25T05:28:19.850Z,8.00
2023-03-25T05:30:48.216Z,9.10
2023-03-25T05:33:17.949Z,8.30
2023-03-25T05:35:46.922Z,7.90
2023-03-25T05:38:19.679Z,8.00
2023-03-25T05:40:48.910Z,8.10
2023-03-25T05:43:23.238Z,8.60
2023-03-25T05:45:51.906Z,10.20
2023-03-25T05:48:20.372Z,14.30
2023-03-25T05:50:48.606Z,26.90
2023-03-25T05:53:17.107Z,19.10
2023-03-25T05:55:47.547Z,14.00
2023-03-25T05:58:17.517Z,9.90
2023-03-25T06:00:47.180Z,8.50
2023-03-25T06:03:15.673Z,8.50
2023-03-25T06:05:44.011Z,7.00
2023-03-25T06:08:12.417Z,5.10
2023-03-25T06:10:41.730Z,4.60
2023-03-25T06:13:10.111Z,4.80
2023-03-25T06:15:40.776Z,5.10
2023-03-25T06:18:10.660Z,5.20
2023-03-25T06:20:39.078Z,18.70
2023-03-25T06:23:08.019Z,18.40
2023-03-25T06:25:36.485Z,9.10
2023-03-25T06:28:05.051Z,7.10
2023-03-25T06:30:33.288Z,4.50
2023-03-25T06:33:06.128Z,4.40
2023-03-25T06:35:34.658Z,4.50
2023-03-25T06:38:03.609Z,4.50
2023-03-25T06:40:39.457Z,5.30
2023-03-25T06:43:07.806Z,5.10
2023-03-25T06:45:39.160Z,5.70
2023-03-25T06:48:23.176Z,5.20
2023-03-25T06:50:51.639Z,6.20
2023-03-25T06:53:19.973Z,6.40
2023-03-25T06:55:48.485Z,7.20
2023-03-25T06:58:17.027Z,7.50
2023-03-25T07:00:46.968Z,6.90
2023-03-25T07:03:15.475Z,6.30
2023-03-25T07:05:43.947Z,6.80
2023-03-25T07:08:13.398Z,6.20
2023-03-25T07:10:41.729Z,5.70
2023-03-25T07:13:10.783Z,6.50
2023-03-25T07:15:40.527Z,6.30
2023-03-25T07:18:08.976Z,6.70
2023-03-25T07:20:37.221Z,6.90
2023-03-25T07:23:05.536Z,7.90
2023-03-25T07:25:33.872Z,7.40
2023-03-25T07:28:02.191Z,8.30
2023-03-25T07:30:31.217Z,7.80
2023-03-25T07:32:59.735Z,6.80
2023-03-25T07:35:28.296Z,7.70
2023-03-25T07:37:56.514Z,7.80
2023-03-25T07:40:24.855Z,7.30
2023-03-25T07:42:53.127Z,7.70
2023-03-25T07:45:21.306Z,7.30
2023-03-25T07:47:51.341Z,7.70
2023-03-25T07:50:24.404Z,7.40
2023-03-25T07:52:54.551Z,7.80
2023-03-25T07:55:23.175Z,7.50
2023-03-25T07:57:51.355Z,7.50
2023-03-25T08:00:20.088Z,7.40
2023-03-25T08:02:48.372Z,7.40
2023-03-25T08:05:23.698Z,7.70
2023-03-25T08:08:02.312Z,7.40
2023-03-25T08:10:30.504Z,7.00
2023-03-25T08:12:58.777Z,6.50
2023-03-25T08:15:27.022Z,6.20
2023-03-25T08:17:55.290Z,7.30
2023-03-25T08:20:23.646Z,6.80
2023-03-25T08:22:51.813Z,7.20
2023-03-25T08:25:20.037Z,6.50
2023-03-25T08:27:48.449Z,6.20
2023-03-25T08:30:17.590Z,6.70
2023-03-25T08:32:46.349Z,6.70
2023-03-25T08:35:15.091Z,6.70
2023-03-25T08:37:43.318Z,5.90
2023-03-25T08:40:11.734Z,6.80
2023-03-25T08:42:39.985Z,7.10
2023-03-25T08:45:09.181Z,9.00
2023-03-25T08:47:37.492Z,13.30
2023-03-25T08:50:06.283Z,7.70
2023-03-25T08:52:34.900Z,6.60
2023-03-25T08:55:04.145Z,7.10
2023-03-25T08:57:32.738Z,6.40
2023-03-25T09:00:00.893Z,6.50
2023-03-25T09:02:29.161Z,6.10
2023-03-25T09:05:00.151Z,6.50
2023-03-25T09:07:32.435Z,6.00
2023-03-25T09:10:03.392Z,6.20
2023-03-25T09:12:31.923Z,6.50
2023-03-25T09:15:04.574Z,6.30
2023-03-25T09:17:36.175Z,6.60
2023-03-25T09:20:10.885Z,7.00
2023-03-25T09:22:40.885Z,6.80
2023-03-25T09:25:12.368Z,6.50
2023-03-25T09:27:44.506Z,6.70
2023-03-25T09:30:13.243Z,6.80
2023-03-25T09:32:42.488Z,6.50
2023-03-25T09:35:20.430Z,6.90
2023-03-25T09:37:55.704Z,6.50
2023-03-25T09:40:26.099Z,12.90
2023-03-25T09:43:08.236Z,9.50
2023-03-25T09:45:47.465Z,10.00
2023-03-25T09:48:24.810Z,8.00
2023-03-25T09:50:53.350Z,6.90
2023-03-25T09:53:45.372Z,7.00
2023-03-25T09:56:21.610Z,7.50
2023-03-25T09:58:54.435Z,7.50
2023-03-25T10:02:16.214Z,8.30
2023-03-25T10:05:04.666Z,7.20
2023-03-25T10:08:03.705Z,7.20
2023-03-25T10:10:49.670Z,6.40
2023-03-25T10:13:32.405Z,5.90
2023-03-25T10:16:25.309Z,6.20
2023-03-25T10:19:17.894Z,6.40
2023-03-25T10:21:56.404Z,5.80
2023-03-25T10:24:55.724Z,5.50
2023-03-25T10:27:39.863Z,5.70
2023-03-25T10:30:17.594Z,5.20
2023-03-25T10:32:57.451Z,4.10
2023-03-25T10:35:30.181Z,5.90
2023-03-25T10:38:08.697Z,5.10
2023-03-25T10:40:53.583Z,4.60
2023-03-25T10:43:32.032Z,4.30
2023-03-25T10:46:07.213Z,5.00
2023-03-25T10:48:36.171Z,4.00
2023-03-25T10:51:09.668Z,3.80
2023-03-25T10:53:40.584Z,3.90
2023-03-25T10:56:17.997Z,4.00
2023-03-25T10:58:51.764Z,4.00
2023-03-25T11:01:27.336Z,3.60
2023-03-25T11:03:57.654Z,4.40
2023-03-25T11:06:29.869Z,6.30
2023-03-25T11:09:25.759Z,7.40
2023-03-25T11:11:54.381Z,6.10
2023-03-25T11:14:28.261Z,4.20
2023-03-25T11:17:00.972Z,4.20
2023-03-25T11:19:37.108Z,3.00
2023-03-25T11:22:18.524Z,3.30
2023-03-25T11:24:50.763Z,3.70
2023-03-25T11:27:23.921Z,3.30
2023-03-25T11:29:59.741Z,3.30
2023-03-25T11:32:39.496Z,3.30
2023-03-25T11:35:23.414Z,2.80
2023-03-25T11:38:14.322Z,2.90
2023-03-25T11:40:55.975Z,2.80
2023-03-25T11:43:30.940Z,3.00
2023-03-25T11:46:11.696Z,3.10
2023-03-25T11:48:42.850Z,3.20
2023-03-25T11:51:19.564Z,2.50
2023-03-25T11:53:57.664Z,2.70
2023-03-25T11:56:56.599Z,2.80
2023-03-25T11:59:46.458Z,2.70
2023-03-25T12:02:26.432Z,3.10
2023-03-25T12:05:13.138Z,2.90
2023-03-25T12:07:49.821Z,2.90
2023-03-25T12:10:25.674Z,3.60
2023-03-25T12:13:12.318Z,2.90
2023-03-25T12:16:09.153Z,2.50
2023-03-25T12:18:48.897Z,2.80
2023-03-25T12:22:02.248Z,2.60
2023-03-25T12:24:36.834Z,2.30
2023-03-25T12:27:53.577Z,2.30
2023-03-25T12:30:25.006Z,3.00
2023-03-25T12:33:02.676Z,2.60
2023-03-25T12:35:40.554Z,3.10
2023-03-25T12:38:20.677Z,2.60
2023-03-25T12:41:17.080Z,2.50
2023-03-25T12:43:57.430Z,2.20
2023-03-25T12:46:34.845Z,3.10
2023-03-25T12:49:37.059Z,2.10
2023-03-25T12:52:44.001Z,2.00
2023-03-25T12:55:35.325Z,1.30
2023-03-25T12:58:32.219Z,1.30
2023-03-25T13:01:17.610Z,1.30
2023-03-25T13:03:51.575Z,2.20
2023-03-25T13:06:43.634Z,2.80
2023-03-25T13:09:20.843Z,2.90
2023-03-25T13:11:57.574Z,4.00
2023-03-25T13:14:32.507Z,2.40
2023-03-25T13:17:07.463Z,2.30
2023-03-25T13:19:41.227Z,2.20
2023-03-25T13:22:20.760Z,2.20
2023-03-25T13:24:53.705Z,3.10
2023-03-25T13:27:22.574Z,2.50
2023-03-25T13:29:54.663Z,2.40
2023-03-25T13:32:33.912Z,2.90
2023-03-25T13:35:34.865Z,2.20
2023-03-25T13:38:11.584Z,2.20
2023-03-25T13:40:52.171Z,1.70
2023-03-25T13:43:27.473Z,2.30
2023-03-25T13:46:18.444Z,2.90
2023-03-25T13:49:02.932Z,2.20
2023-03-25T13:51:31.458Z,2.90
2023-03-25T13:54:07.052Z,3.30
2023-03-25T13:56:53.525Z,2.20
2023-03-25T13:59:59.230Z,3.10
2023-03-25T14:02:34.963Z,3.90
2023-03-25T14:05:21.611Z,2.00
2023-03-25T14:07:58.592Z,3.20
2023-03-25T14:10:26.754Z,3.00
2023-03-25T14:13:14.991Z,3.60
2023-03-25T14:16:07.859Z,3.10
2023-03-25T14:18:44.754Z,3.10
2023-03-25T14:21:34.242Z,3.30
2023-03-25T14:24:02.592Z,2.80
2023-03-25T14:26:34.685Z,2.50
2023-03-25T14:29:10.002Z,2.30
2023-03-25T14:31:38.371Z,3.20
2023-03-25T14:34:06.645Z,2.80
2023-03-25T14:36:37.779Z,4.10
2023-03-25T14:39:32.241Z,2.90
2023-03-25T14:42:13.359Z,3.90
2023-03-25T14:44:49.704Z,3.60
2023-03-25T14:47:30.360Z,2.40
2023-03-25T14:50:21.717Z,2.80
2023-03-25T14:52:58.228Z,2.90
2023-03-25T14:55:31.153Z,3.90
2023-03-25T14:58:06.674Z,3.60
2023-03-25T15:00:42.712Z,5.80
2023-03-25T15:03:10.922Z,5.80
2023-03-25T15:05:42.332Z,10.50
2023-03-25T15:08:16.701Z,9.60
2023-03-25T15:10:50.168Z,26.20
2023-03-25T15:13:26.012Z,7.10
2023-03-25T15:16:00.975Z,4.60
2023-03-25T15:18:32.041Z,5.20
2023-03-25T15:21:23.767Z,5.70
2023-03-25T15:24:07.041Z,5.60
2023-03-25T15:26:40.299Z,5.10
2023-03-25T15:29:26.914Z,4.60
2023-03-25T15:32:19.492Z,6.60
2023-03-25T15:34:54.266Z,7.60
2023-03-25T15:40:19.842Z,8.70
2023-03-25T15:43:10.288Z,8.80
2023-03-25T15:46:27.869Z,6.30
2023-03-25T15:49:16.895Z,7.20
2023-03-25T15:51:51.514Z,6.60
2023-03-25T15:54:22.703Z,7.90
2023-03-25T15:56:57.433Z,12.50
2023-03-25T15:59:42.083Z,16.90
2023-03-25T16:02:23.945Z,9.80
2023-03-25T16:04:53.430Z,10.70
2023-03-25T16:07:24.832Z,14.80
2023-03-25T16:09:53.295Z,12.30
2023-03-25T16:12:24.670Z,11.80
2023-03-25T16:14:53.186Z,12.00
2023-03-25T16:17:25.636Z,13.60
2023-03-25T16:19:56.610Z,12.80
2023-03-25T16:22:28.540Z,10.10
2023-03-25T16:24:59.692Z,7.30
2023-03-25T16:27:35.808Z,6.50
2023-03-25T16:30:23.994Z,6.80
2023-03-25T16:32:53.015Z,7.10
2023-03-25T16:35:27.527Z,9.40
2023-03-25T16:37:59.796Z,5.90
2023-03-25T16:40:32.031Z,9.60
2023-03-25T16:43:11.695Z,7.40
2023-03-25T16:45:40.997Z,6.40
2023-03-25T16:48:16.347Z,10.10
2023-03-25T16:50:45.840Z,8.00
2023-03-25T16:53:17.304Z,10.00
2023-03-25T16:55:51.593Z,6.90
2023-03-25T16:58:23.015Z,8.40
2023-03-25T17:00:55.353Z,9.60
2023-03-25T17:03:45.146Z,5.90
2023-03-25T17:06:35.315Z,8.00
2023-03-25T17:09:05.127Z,10.00
2023-03-25T17:11:33.522Z,10.60
2023-03-25T17:14:15.608Z,8.60
2023-03-25T17:16:46.312Z,8.70
2023-03-25T17:19:15.943Z,6.70
2023-03-25T17:22:36.443Z,7.60
2023-03-25T17:25:23.186Z,7.60
2023-03-25T17:27:57.605Z,6.30
2023-03-25T17:30:28.940Z,5.80
2023-03-25T17:33:10.665Z,6.80
2023-03-25T17:35:41.581Z,7.70
2023-03-25T17:38:21.275Z,7.90
2023-03-25T17:40:59.173Z,10.90
2023-03-25T17:43:32.025Z,10.80
2023-03-25T17:46:01.289Z,9.20
2023-03-25T17:48:29.644Z,10.90
2023-03-25T17:50:59.473Z,10.70
2023-03-25T17:53:27.707Z,10.50
2023-03-25T17:55:59.150Z,8.80
2023-03-25T17:58:27.443Z,8.60
2023-03-25T18:00:56.243Z,8.90
2023-03-25T18:03:28.043Z,10.10
2023-03-25T18:06:12.427Z,11.10
2023-03-25T18:08:40.703Z,12.90
2023-03-25T18:11:11.395Z,13.70
2023-03-25T18:13:45.783Z,17.00
2023-03-25T18:16:16.079Z,31.50
2023-03-25T18:18:44.456Z,32.00
2023-03-25T18:21:15.714Z,24.70
2023-03-25T18:23:47.823Z,28.50
2023-03-25T18:26:18.822Z,20.50
2023-03-25T18:28:47.912Z,17.60
2023-03-25T18:31:17.569Z,15.50
2023-03-25T18:33:48.446Z,14.30
2023-03-25T18:36:18.424Z,14.90
2023-03-25T18:38:47.788Z,14.00
2023-03-25T18:41:17.392Z,12.50
2023-03-25T18:43:46.151Z,11.30
2023-03-25T18:46:15.816Z,13.20
2023-03-25T18:48:44.134Z,10.70
2023-03-25T18:51:13.806Z,10.20
2023-03-25T18:53:42.112Z,10.70
2023-03-25T18:56:10.648Z,11.50
2023-03-25T18:58:39.060Z,10.90
2023-03-25T19:01:07.786Z,10.30
2023-03-25T19:03:39.441Z,10.40
2023-03-25T19:06:13.478Z,9.40
2023-03-25T19:08:44.202Z,9.50
2023-03-25T19:11:20.843Z,10.60
2023-03-25T19:13:51.617Z,13.10
2023-03-25T19:16:21.022Z,12.70
2023-03-25T19:18:49.314Z,13.50
2023-03-25T19:21:19.380Z,11.90
2023-03-25T19:23:48.241Z,11.50
2023-03-25T19:26:16.585Z,11.40
2023-03-25T19:28:45.442Z,10.80
2023-03-25T19:31:16.431Z,12.60
2023-03-25T19:33:45.020Z,12.60
2023-03-25T19:36:15.398Z,12.60
2023-03-25T19:38:43.959Z,12.90
2023-03-25T19:41:15.564Z,15.50
2023-03-25T19:43:43.882Z,16.20
2023-03-25T19:46:12.248Z,20.90
2023-03-25T19:48:40.959Z,25.00
2023-03-25T19:51:09.580Z,24.40
2023-03-25T19:53:37.853Z,21.60
2023-03-25T19:56:06.462Z,20.60
2023-03-25T19:58:35.141Z,18.70
2023-03-25T20:01:03.570Z,18.50
2023-03-25T20:03:32.885Z,18.70
2023-03-25T20:06:02.823Z,17.10
2023-03-25T20:08:31.961Z,16.70
2023-03-25T20:11:01.383Z,16.00
2023-03-25T20:13:29.794Z,19.30
2023-03-25T20:15:58.163Z,17.50
2023-03-25T20:18:26.624Z,17.80
2023-03-25T20:20:55.403Z,19.10
2023-03-25T20:23:23.743Z,19.60
2023-03-25T20:25:53.440Z,18.10
2023-03-25T20:28:22.813Z,17.20
2023-03-25T20:30:51.661Z,20.00
2023-03-25T20:33:20.032Z,24.10
2023-03-25T20:35:48.410Z,19.80
2023-03-25T20:38:17.186Z,21.70
2023-03-25T20:40:45.701Z,28.80
2023-03-25T20:43:14.708Z,29.10
2023-03-25T20:45:43.802Z,26.20
2023-03-25T20:48:12.287Z,22.30
2023-03-25T20:50:40.784Z,17.10
2023-03-25T20:53:09.282Z,16.60
2023-03-25T20:55:37.610Z,15.80
2023-03-25T20:58:06.286Z,16.50
2023-03-25T21:00:35.341Z,20.90
2023-03-25T21:03:05.053Z,21.40
2023-03-25T21:05:33.451Z,18.90
2023-03-25T21:08:01.736Z,16.30
2023-03-25T21:10:30.015Z,15.90
2023-03-25T21:12:58.351Z,13.90
2023-03-25T21:15:27.169Z,15.10
2023-03-25T21:17:55.690Z,13.60
2023-03-25T21:20:27.139Z,11.00
2023-03-25T21:22:57.461Z,10.10
2023-03-25T21:25:34.469Z,8.60
2023-03-25T21:28:04.869Z,8.60
2023-03-25T21:30:33.251Z,10.00
2023-03-25T21:33:01.748Z,9.50
2023-03-25T21:35:32.574Z,10.90
2023-03-25T21:38:01.112Z,15.10
2023-03-25T21:40:39.898Z,16.30
2023-03-25T21:43:08.537Z,15.40
2023-03-25T21:45:36.870Z,15.20
2023-03-25T21:48:05.309Z,15.40
2023-03-25T21:50:36.404Z,19.50
2023-03-25T21:53:06.361Z,21.00
2023-03-25T21:55:36.568Z,16.20
2023-03-25T21:58:04.860Z,12.80
2023-03-25T22:00:33.051Z,12.10
2023-03-25T22:03:01.388Z,15.10
2023-03-25T22:05:32.462Z,14.40
2023-03-25T22:08:00.840Z,14.10
2023-03-25T22:10:29.092Z,14.30
2023-03-25T22:12:57.428Z,12.80
2023-03-25T22:15:25.727Z,13.80
2023-03-25T22:17:54.160Z,14.30
2023-03-25T22:20:22.512Z,13.70
2023-03-25T22:22:51.485Z,13.00
2023-03-25T22:25:20.595Z,12.60
2023-03-25T22:27:49.052Z,12.80
2023-03-25T22:30:17.345Z,13.90
2023-03-25T22:32:45.639Z,16.10
2023-03-25T22:35:14.246Z,12.70
2023-03-25T22:37:42.598Z,10.60
2023-03-25T22:40:11.893Z,11.80
2023-03-25T22:42:40.517Z,18.70
2023-03-25T22:45:09.260Z,22.00
2023-03-25T22:47:37.543Z,17.90
2023-03-25T22:50:06.681Z,12.00
2023-03-25T22:52:35.302Z,10.50
2023-03-25T22:55:03.689Z,10.30
2023-03-25T22:57:32.021Z,13.10
2023-03-25T23:00:00.485Z,9.30
2023-03-25T23:02:29.064Z,6.80
2023-03-25T23:04:57.359Z,5.30
2023-03-25T23:07:26.443Z,5.10
2023-03-25T23:09:54.692Z,3.90
2023-03-25T23:12:24.862Z,3.20
2023-03-25T23:14:55.900Z,3.20
2023-03-25T23:17:26.511Z,2.50
2023-03-25T23:19:54.983Z,2.50
2023-03-25T23:22:24.829Z,2.80
2023-03-25T23:24:53.270Z,2.80
2023-03-25T23:27:22.446Z,2.60
2023-03-25T23:29:50.729Z,3.10
2023-03-25T23:32:18.889Z,2.80
2023-03-25T23:34:47.417Z,2.90
2023-03-25T23:37:15.643Z,2.70
2023-03-25T23:39:46.354Z,2.10
2023-03-25T23:42:14.588Z,2.70
2023-03-25T23:44:43.774Z,3.10
2023-03-25T23:47:12.449Z,2.90
2023-03-25T23:49:40.735Z,2.20
2023-03-25T23:52:11.534Z,3.10
2023-03-25T23:54:40.495Z,2.50
2023-03-25T23:57:08.917Z,2.10
2023-03-25T23:59:37.286Z,2.10
